Time;durP1;ratioP1;P1;durP2;ratioP2;P2;SDS_P1;SDS_P2;PMS_P1;PMS_P2;Temp;Humidity;BMP_temperature;BMP_pressure;BME280_temperature;BME280_humidity;BME280_pressure;Samples;Min_cycle;Max_cycle;Signal;HPM_P1;HPM_P2
2021/03/02 00:04:09;;;;;;;3.27;2.90;;;;;;;2.17;100.00;100653.45;3895090;75;396348;-77
2021/03/02 00:09:31;;;;;;;7.00;1.07;;;;;;;1.97;100.00;100655.82;3894693;75;394289;-77
2021/03/02 00:14:53;;;;;;;1.03;0.90;;;;;;;2.18;100.00;100655.63;3895461;75;391853;-77
2021/03/02 00:20:23;;;;;;;1.50;1.23;;;;;;;1.90;100.00;100650.02;3895400;75;391857;-78
2021/03/02 00:25:48;;;;;;;1.43;1.33;;;;;;;1.85;100.00;100655.56;3895477;75;391907;-78
2021/03/02 00:31:09;;;;;;;2.50;2.40;;;;;;;1.77;100.00;100655.70;3892935;75;396345;-77
2021/03/02 00:36:31;;;;;;;10.80;2.40;;;;;;;1.62;100.00;100666.05;3895327;75;393987;-77
2021/03/02 00:41:52;;;;;;;2.87;2.67;;;;;;;1.54;100.00;100673.55;3882982;75;383546;-77
2021/03/02 00:47:13;;;;;;;2.53;2.00;;;;;;;1.55;100.00;100668.94;3883478;75;396050;-77
2021/03/02 00:52:35;;;;;;;1.17;0.97;;;;;;;1.50;100.00;100676.63;3883056;75;391927;-77
2021/03/02 00:57:57;;;;;;;2.10;1.67;;;;;;;1.37;100.00;100668.48;3883283;75;396217;-77
2021/03/02 01:03:18;;;;;;;1.77;0.80;;;;;;;1.33;100.00;100670.20;3884495;75;383826;-77
2021/03/02 01:08:39;;;;;;;6.80;2.17;;;;;;;1.23;100.00;100662.25;3883329;75;396042;-77
2021/03/02 01:14:00;;;;;;;1.57;1.47;;;;;;;1.11;100.00;100668.16;3883040;75;391948;-77
2021/03/02 01:19:22;;;;;;;1.87;1.50;;;;;;;1.05;100.00;100663.92;3883331;75;395074;-78
2021/03/02 01:24:43;;;;;;;2.43;1.63;;;;;;;1.04;100.00;100655.56;3882889;75;394050;-78
2021/03/02 01:30:10;;;;;;;3.10;1.87;;;;;;;0.97;100.00;100648.35;3883556;75;396316;-77
2021/03/02 01:35:31;;;;;;;1.27;0.87;;;;;;;1.14;100.00;100645.08;3884485;75;383819;-77
2021/03/02 01:40:52;;;;;;;0.80;0.50;;;;;;;0.99;100.00;100645.36;3891372;75;383641;-77
2021/03/02 01:46:13;;;;;;;2.50;2.30;;;;;;;0.83;100.00;100649.45;3895032;75;396138;-77
2021/03/02 01:51:34;;;;;;;2.90;1.33;;;;;;;0.73;100.00;100650.18;3895800;75;383913;-77
2021/03/02 01:56:55;;;;;;;2.60;1.70;;;;;;;0.79;100.00;100646.53;3895714;75;387839;-77
2021/03/02 02:02:19;;;;;;;0.80;0.53;;;;;;;1.00;100.00;100647.77;3895574;75;383776;-77
2021/03/02 02:07:43;;;;;;;2.37;2.17;;;;;;;0.81;100.00;100648.38;3893698;75;396034;-77
2021/03/02 02:13:16;;;;;;;2.63;1.33;;;;;;;0.62;100.00;100652.80;3895122;75;396119;-77
2021/03/02 02:18:40;;;;;;;2.00;1.90;;;;;;;0.51;100.00;100653.52;3893086;75;395294;-76
2021/03/02 02:24:26;;;;;;;4.40;1.80;;;;;;;0.51;100.00;100648.63;3895378;75;392956;-77
2021/03/02 02:29:47;;;;;;;2.17;1.13;;;;;;;0.50;100.00;100644.31;3895353;75;388067;-77
2021/03/02 02:35:11;;;;;;;5.43;2.43;;;;;;;0.49;100.00;100641.35;3895127;75;396131;-77
2021/03/02 02:40:33;;;;;;;0.90;0.70;;;;;;;0.38;100.00;100647.48;3896324;75;383640;-77
2021/03/02 02:45:55;;;;;;;4.27;2.47;;;;;;;0.30;100.00;100648.71;3895021;75;396129;-77
2021/03/02 02:51:18;;;;;;;3.97;3.40;;;;;;;0.23;100.00;100642.88;3894687;75;396339;-77
2021/03/02 02:56:43;;;;;;;2.60;1.60;;;;;;;0.11;100.00;100643.85;3894894;75;394985;-77
2021/03/02 03:02:07;;;;;;;1.27;1.03;;;;;;;0.03;100.00;100640.45;3895132;75;393976;-76
2021/03/02 03:07:38;;;;;;;1.53;1.20;;;;;;;-0.01;100.00;100641.59;3895430;75;394217;-77
2021/03/02 03:13:06;;;;;;;7.20;1.57;;;;;;;-0.02;100.00;100645.95;3895189;75;394037;-76
2021/03/02 03:18:33;;;;;;;3.10;2.47;;;;;;;0.07;100.00;100650.96;3894927;75;396077;-76
2021/03/02 03:23:56;;;;;;;1.23;1.13;;;;;;;0.11;100.00;100640.62;3893392;75;395401;-77
2021/03/02 03:29:19;;;;;;;3.00;1.70;;;;;;;0.16;100.00;100642.45;3894754;75;396311;-77
2021/03/02 03:34:44;;;;;;;1.77;1.57;;;;;;;0.13;100.00;100643.02;3894704;75;396359;-77
2021/03/02 03:40:05;;;;;;;5.93;2.83;;;;;;;0.14;100.00;100649.48;3891405;75;396046;-76
2021/03/02 03:45:27;;;;;;;1.53;1.43;;;;;;;0.05;100.00;100647.73;3883833;75;395328;-77
2021/03/02 03:50:48;;;;;;;3.53;1.53;;;;;;;-0.06;100.00;100650.88;3883650;75;385697;-76
2021/03/02 03:56:11;;;;;;;2.40;2.17;;;;;;;-0.19;100.00;100667.81;3883245;75;396344;-76
2021/03/02 04:01:34;;;;;;;4.23;2.13;;;;;;;-0.19;100.00;100662.40;3883887;75;396067;-76
2021/03/02 04:06:57;;;;;;;2.80;1.83;;;;;;;-0.20;100.00;100661.61;3882903;75;396394;-77
2021/03/02 04:12:19;;;;;;;2.93;1.50;;;;;;;-0.32;100.00;100661.22;3883374;75;396357;-77
2021/03/02 04:17:40;;;;;;;3.73;3.03;;;;;;;-0.48;100.00;100663.06;3883874;75;396042;-77
2021/03/02 04:23:01;;;;;;;3.63;1.30;;;;;;;-0.59;100.00;100670.48;3883795;75;396457;-77
2021/03/02 04:28:22;;;;;;;5.83;2.67;;;;;;;-0.70;100.00;100665.49;3883382;75;395086;-77
2021/03/02 04:33:44;;;;;;;0.80;0.50;;;;;;;-0.80;100.00;100664.25;3885053;75;383784;-77
2021/03/02 04:39:05;;;;;;;0.90;0.80;;;;;;;-0.80;100.00;100671.00;3884629;75;392137;-76
2021/03/02 04:44:26;;;;;;;1.70;1.30;;;;;;;-0.76;100.00;100661.21;3883736;75;396099;-76
2021/03/02 04:49:48;;;;;;;1.70;1.60;;;;;;;-0.78;100.00;100670.97;3883857;75;396052;-76
2021/03/02 04:55:09;;;;;;;1.93;0.93;;;;;;;-0.81;100.00;100671.53;3883857;75;390848;-77
2021/03/02 05:00:31;;;;;;;8.53;1.27;;;;;;;-0.85;100.00;100670.24;3884473;75;383803;-77
2021/03/02 05:05:52;;;;;;;2.80;1.33;;;;;;;-0.89;100.00;100679.47;3883075;75;391971;-76
2021/03/02 05:11:13;;;;;;;2.63;2.43;;;;;;;-0.80;100.00;100675.84;3883499;75;395044;-76
2021/03/02 05:16:34;;;;;;;2.67;1.17;;;;;;;-0.90;100.00;100674.36;3883846;75;391850;-76
2021/03/02 05:21:55;;;;;;;1.97;0.73;;;;;;;-1.09;100.00;100673.45;3884112;75;389779;-76
2021/03/02 05:27:16;;;;;;;1.50;1.17;;;;;;;-1.11;100.00;100664.83;3883725;75;396077;-76
2021/03/02 05:32:38;;;;;;;3.60;1.67;;;;;;;-1.20;100.00;100671.41;3883611;75;396121;-76
2021/03/02 05:37:59;;;;;;;25.47;2.73;;;;;;;-1.29;100.00;100674.98;3883561;75;393933;-77
2021/03/02 05:43:20;;;;;;;1.80;1.70;;;;;;;-1.31;100.00;100677.18;3911632;75;396117;-77
2021/03/02 05:48:42;;;;;;;3.93;3.40;;;;;;;-1.16;100.00;100677.05;3922273;74;396083;-76
2021/03/02 05:54:04;;;;;;;0.90;0.70;;;;;;;-0.81;100.00;100678.84;3923309;75;383775;-75
2021/03/02 05:59:25;;;;;;;2.23;2.03;;;;;;;-1.17;100.00;100681.62;3922650;75;395038;-76
2021/03/02 06:04:51;;;;;;;0.80;0.50;;;;;;;-1.30;100.00;100688.25;3923341;75;383580;-77
2021/03/02 06:10:15;;;;;;;1.80;1.57;;;;;;;-1.48;100.00;100680.83;3922431;75;390025;-77
2021/03/02 06:15:37;;;;;;;3.07;2.37;;;;;;;-1.45;100.00;100683.77;3921321;75;395102;-77
2021/03/02 06:21:12;;;;;;;1.07;0.97;;;;;;;-1.37;100.00;100687.20;3922558;75;393948;-77
2021/03/02 06:26:34;;;;;;;1.10;1.00;;;;;;;-1.11;100.00;100699.94;3922971;75;391863;-77
2021/03/02 06:31:55;;;;;;;2.43;2.03;;;;;;;-1.06;100.00;100694.50;3922076;74;396156;-77
2021/03/02 06:37:16;;;;;;;2.10;2.00;;;;;;;-0.82;100.00;100695.34;3922431;75;396113;-77
2021/03/02 06:42:39;;;;;;;1.43;1.33;;;;;;;-0.44;100.00;100704.63;3907102;74;391935;-77
2021/03/02 06:48:05;;;;;;;2.53;2.33;;;;;;;-0.35;100.00;100702.37;3889265;75;396335;-77
2021/03/02 06:53:27;;;;;;;1.10;1.00;;;;;;;-0.23;100.00;100709.50;3890153;75;383787;-77
2021/03/02 06:58:51;;;;;;;6.23;4.00;;;;;;;-0.01;100.00;100711.92;3889261;75;396141;-81
2021/03/02 07:04:15;;;;;;;1.10;1.00;;;;;;;0.02;100.00;100713.23;3888687;75;392145;-79
2021/03/02 07:09:41;;;;;;;0.90;0.80;;;;;;;0.13;100.00;100721.48;3890236;75;391872;-77
2021/03/02 07:15:03;;;;;;;1.33;1.23;;;;;;;0.30;100.00;100723.93;3888920;75;395083;-78
2021/03/02 07:20:25;;;;;;;1.50;1.10;;;;;;;0.57;100.00;100733.55;3889447;75;391104;-78
2021/03/02 07:25:48;;;;;;;4.17;2.50;;;;;;;1.06;100.00;100727.85;3889493;75;396401;-78
2021/03/02 07:31:10;;;;;;;1.47;1.37;;;;;;;1.50;100.00;100734.93;3889688;75;394219;-77
2021/03/02 07:36:40;;;;;;;8.93;3.20;;;;;;;1.91;100.00;100740.60;3889809;75;391865;-78
2021/03/02 07:42:03;;;;;;;2.70;2.50;;;;;;;2.17;100.00;100741.69;3890376;75;396074;-77
2021/03/02 07:47:27;;;;;;;3.07;2.27;;;;;;;2.38;100.00;100742.30;3893978;75;396094;-78
2021/03/02 07:52:48;;;;;;;18.73;3.80;;;;;;;2.57;100.00;100743.50;3894094;75;396121;-78
2021/03/02 07:58:20;;;;;;;1.60;1.50;;;;;;;3.01;100.00;100749.77;3895187;75;395025;-78
2021/03/02 08:03:41;;;;;;;5.63;5.13;;;;;;;3.58;100.00;100751.55;3895052;75;396448;-79
2021/03/02 08:09:06;;;;;;;2.80;2.20;;;;;;;4.22;100.00;100749.70;3894984;75;395420;-79
2021/03/02 08:14:30;;;;;;;3.50;3.00;;;;;;;4.89;100.00;100753.04;3875948;75;396104;-78
2021/03/02 08:20:06;;;;;;;13.30;5.20;;;;;;;5.58;100.00;100758.63;3894822;75;394044;-78
2021/03/02 08:25:29;;;;;;;4.33;2.97;;;;;;;6.07;100.00;100757.41;3894378;75;396128;-78
2021/03/02 08:30:50;;;;;;;1.70;1.47;;;;;;;6.52;100.00;100754.34;3894384;75;394235;-79
2021/03/02 08:36:13;;;;;;;5.33;3.37;;;;;;;7.13;100.00;100757.06;3894980;75;396359;-80
2021/03/02 08:41:37;;;;;;;5.13;2.40;;;;;;;7.85;98.26;100754.52;3894620;74;396318;-79
2021/03/02 08:46:58;;;;;;;7.27;3.80;;;;;;;8.39;93.56;100756.73;3883584;75;397019;-79
2021/03/02 08:52:19;;;;;;;10.30;4.03;;;;;;;8.72;91.36;100759.52;3883911;75;394250;-79
2021/03/02 08:57:45;;;;;;;6.90;3.90;;;;;;;9.23;85.59;100760.83;3882750;75;398047;-79
2021/03/02 09:03:06;;;;;;;11.17;2.30;;;;;;;9.67;85.20;100748.12;3883367;75;393258;-79
2021/03/02 09:08:27;;;;;;;4.70;3.47;;;;;;;10.23;81.23;100741.31;3883429;75;397016;-79
2021/03/02 09:13:49;;;;;;;6.40;4.07;;;;;;;10.74;75.85;100743.67;3883682;75;393984;-79
2021/03/02 09:19:13;;;;;;;10.70;2.90;;;;;;;11.22;67.48;100743.14;3883468;75;396097;-79
2021/03/02 09:24:37;;;;;;;5.67;4.10;;;;;;;11.73;62.36;100744.52;3883269;75;397269;-80
2021/03/02 09:29:59;;;;;;;8.60;4.83;;;;;;;12.26;60.55;100748.39;3883721;75;397295;-80
2021/03/02 09:35:21;;;;;;;7.53;4.33;;;;;;;13.01;57.63;100744.38;3883410;75;391917;-80
2021/03/02 09:40:44;;;;;;;19.77;5.77;;;;;;;13.69;54.47;100735.32;3882784;75;401232;-80
2021/03/02 09:46:07;;;;;;;7.83;4.10;;;;;;;13.79;53.14;100741.55;3915350;75;384587;-80
2021/03/02 09:51:34;;;;;;;10.43;4.93;;;;;;;14.08;53.27;100738.45;3922495;75;389918;-80
2021/03/02 09:57:03;;;;;;;8.17;4.37;;;;;;;14.50;52.01;100732.67;3922305;75;382683;-80
2021/03/02 10:02:24;;;;;;;7.93;4.70;;;;;;;15.30;49.55;100731.73;3922995;75;389874;-80
2021/03/02 10:07:46;;;;;;;7.80;5.13;;;;;;;16.17;48.12;100731.29;3922939;75;386714;-80
2021/03/02 10:13:07;;;;;;;12.27;7.07;;;;;;;16.58;46.04;100733.05;3922721;75;390818;-80
2021/03/02 10:18:28;;;;;;;6.13;4.20;;;;;;;16.73;44.82;100727.66;3922020;75;396049;-79
2021/03/02 10:23:53;;;;;;;10.93;5.20;;;;;;;17.08;44.27;100721.41;3922232;74;394275;-79
2021/03/02 10:29:14;;;;;;;13.40;5.20;;;;;;;16.68;42.40;100728.08;3922285;75;392945;-80
2021/03/02 10:34:36;;;;;;;10.23;5.47;;;;;;;17.22;41.93;100717.95;3922445;75;391899;-80
2021/03/02 10:39:57;;;;;;;7.27;4.40;;;;;;;16.83;42.83;100715.14;3922426;74;396069;-80
2021/03/02 10:45:19;;;;;;;10.73;4.07;;;;;;;17.44;39.58;100713.11;3906766;75;388768;-80
2021/03/02 10:50:43;;;;;;;7.10;4.27;;;;;;;17.48;40.86;100719.47;3895582;75;396034;-80
2021/03/02 10:56:04;;;;;;;10.73;4.30;;;;;;;17.06;39.52;100710.67;3895157;75;400205;-80
2021/03/02 11:01:26;;;;;;;7.60;4.33;;;;;;;17.31;41.60;100706.44;3892039;75;391142;-80
2021/03/02 11:06:47;;;;;;;9.67;5.23;;;;;;;17.01;40.69;100709.71;3895490;75;390815;-80
2021/03/02 11:12:08;;;;;;;8.00;4.07;;;;;;;17.62;39.35;100700.09;3895892;75;393936;-80
2021/03/02 11:17:30;;;;;;;11.07;5.70;;;;;;;18.43;36.35;100698.24;3895285;75;394238;-80
2021/03/02 11:22:52;;;;;;;8.60;4.43;;;;;;;18.85;38.22;100685.25;3896275;75;396089;-82
2021/03/02 11:28:15;;;;;;;6.60;3.23;;;;;;;19.15;36.94;100683.90;3874437;75;393984;-81
2021/03/02 11:33:36;;;;;;;10.60;5.37;;;;;;;18.99;35.59;100682.89;3885315;75;396077;-80
2021/03/02 11:38:57;;;;;;;8.53;4.90;;;;;;;19.25;35.26;100667.04;3895018;75;388848;-80
2021/03/02 11:44:18;;;;;;;6.23;3.67;;;;;;;19.93;34.90;100652.24;3894605;75;396105;-80
2021/03/02 11:49:39;;;;;;;10.17;3.87;;;;;;;19.77;32.26;100652.11;3895390;75;396034;-80
2021/03/02 11:55:01;;;;;;;12.40;4.30;;;;;;;19.52;32.33;100644.72;3895071;75;393999;-80
2021/03/02 12:00:24;;;;;;;7.97;3.47;;;;;;;19.85;33.01;100635.42;3894979;75;396155;-80
2021/03/02 12:05:45;;;;;;;7.63;4.30;;;;;;;20.12;32.72;100623.77;3895515;75;396136;-80
2021/03/02 12:11:06;;;;;;;8.33;2.83;;;;;;;20.74;32.15;100619.59;3895471;75;388776;-80
2021/03/02 12:16:27;;;;;;;4.57;3.57;;;;;;;21.53;29.52;100610.63;3894807;75;396428;-80
2021/03/02 12:21:48;;;;;;;6.13;3.40;;;;;;;21.94;29.80;100603.24;3894813;75;396322;-80
2021/03/02 12:27:09;;;;;;;5.53;2.63;;;;;;;21.70;28.60;100594.84;3894766;75;396121;-80
2021/03/02 12:32:30;;;;;;;7.80;3.20;;;;;;;21.37;28.42;100591.64;3894814;75;396158;-80
2021/03/02 12:37:51;;;;;;;4.03;3.60;;;;;;;21.57;28.65;100580.57;3894780;75;396319;-80
2021/03/02 12:43:15;;;;;;;6.57;3.30;;;;;;;22.15;27.26;100570.44;3895281;75;388767;-80
2021/03/02 12:48:36;;;;;;;6.80;3.57;;;;;;;22.79;27.15;100572.44;3894663;75;396075;-80
2021/03/02 12:53:57;;;;;;;6.80;3.97;;;;;;;23.44;27.52;100566.63;3895117;75;394235;-81
2021/03/02 12:59:18;;;;;;;6.53;2.80;;;;;;;23.54;25.97;100562.06;3894972;75;396067;-80
2021/03/02 13:04:40;;;;;;;5.27;3.43;;;;;;;24.00;25.12;100554.28;3894842;75;396177;-80
2021/03/02 13:10:01;;;;;;;5.67;3.43;;;;;;;23.73;25.38;100557.42;3894756;75;396098;-80
2021/03/02 13:15:22;;;;;;;4.00;3.07;;;;;;;23.82;24.92;100555.54;3894719;75;396161;-80
2021/03/02 13:20:44;;;;;;;4.90;3.33;;;;;;;23.79;23.88;100550.81;3894650;75;396110;-80
2021/03/02 13:26:05;;;;;;;4.97;3.30;;;;;;;23.63;24.68;100551.53;3894786;75;396349;-80
2021/03/02 13:31:30;;;;;;;6.03;3.40;;;;;;;22.96;25.87;100556.29;3894814;75;396077;-80
2021/03/02 13:36:51;;;;;;;6.63;3.03;;;;;;;23.81;24.27;100539.91;3895024;75;396075;-80
2021/03/02 13:42:15;;;;;;;7.13;3.77;;;;;;;24.04;24.16;100537.29;3895151;75;396341;-81
2021/03/02 13:47:36;;;;;;;3.47;2.70;;;;;;;23.92;24.62;100531.87;3894532;75;396143;-80
2021/03/02 13:52:57;;;;;;;8.97;4.40;;;;;;;23.74;23.51;100521.08;3895100;75;396168;-80
2021/03/02 13:58:19;;;;;;;2.97;2.43;;;;;;;22.91;24.11;100520.36;3894742;75;396095;-80
2021/03/02 14:03:41;;;;;;;8.57;3.23;;;;;;;23.06;24.88;100522.93;3895407;75;396341;-81
2021/03/02 14:09:03;;;;;;;5.13;3.27;;;;;;;23.42;23.91;100506.66;3894885;75;396417;-80
2021/03/02 14:14:25;;;;;;;7.00;3.00;;;;;;;23.48;24.89;100511.90;3895102;75;390062;-80
2021/03/02 14:19:47;;;;;;;8.03;2.90;;;;;;;22.91;23.82;100513.34;3894909;75;396299;-80
2021/03/02 14:25:09;;;;;;;7.47;4.10;;;;;;;22.72;25.52;100507.31;3895581;75;396061;-80
2021/03/02 14:30:30;;;;;;;4.33;2.93;;;;;;;23.30;24.60;100508.71;3894534;75;396086;-80
2021/03/02 14:35:52;;;;;;;5.30;3.57;;;;;;;23.66;24.65;100499.45;3894666;75;396114;-80
2021/03/02 14:41:16;;;;;;;3.43;2.73;;;;;;;23.50;24.30;100497.39;3894775;75;396078;-82
2021/03/02 14:46:42;;;;;;;6.63;3.30;;;;;;;23.83;25.15;100495.88;3890102;74;396395;-81
2021/03/02 14:52:06;;;;;;;9.53;3.50;;;;;;;23.41;25.23;100495.28;3883616;75;396118;-80
2021/03/02 14:57:29;;;;;;;3.70;2.77;;;;;;;21.22;26.66;100495.98;3883059;75;396077;-81
2021/03/02 15:02:52;;;;;;;6.03;3.30;;;;;;;22.99;26.48;100487.40;3882964;75;396114;-81
2021/03/02 15:08:14;;;;;;;6.97;3.33;;;;;;;23.58;24.68;100481.26;3883055;75;396101;-80
2021/03/02 15:13:37;;;;;;;4.57;2.87;;;;;;;22.83;25.23;100485.33;3883283;75;396097;-81
2021/03/02 15:18:59;;;;;;;6.90;3.00;;;;;;;23.26;26.68;100490.57;3883472;75;392891;-80
2021/03/02 15:24:21;;;;;;;4.50;2.97;;;;;;;23.58;25.12;100479.86;3882473;75;396073;-80
2021/03/02 15:29:42;;;;;;;3.37;2.70;;;;;;;23.70;26.21;100485.27;3882659;75;396128;-80
2021/03/02 15:35:05;;;;;;;5.10;3.03;;;;;;;23.42;25.68;100479.97;3881674;75;396310;-80
2021/03/02 15:40:26;;;;;;;5.90;3.10;;;;;;;23.23;26.39;100480.86;3882286;75;396084;-80
2021/03/02 15:45:49;;;;;;;3.57;2.10;;;;;;;22.96;24.86;100474.88;3886082;74;396115;-80
2021/03/02 15:51:10;;;;;;;4.30;2.47;;;;;;;23.31;25.02;100470.33;3921992;74;396089;-80
2021/03/02 15:56:33;;;;;;;7.07;3.07;;;;;;;23.10;25.64;100466.83;3922830;74;390811;-78
2021/03/02 16:02:13;;;;;;;4.30;3.00;;;;;;;23.75;25.18;100467.85;3922274;74;396286;-80
2021/03/02 16:07:42;;;;;;;6.40;3.07;;;;;;;24.10;25.15;100467.36;3922054;75;396069;-80
2021/03/02 16:13:04;;;;;;;5.07;3.00;;;;;;;24.20;25.40;100464.78;3922252;75;396081;-80
2021/03/02 16:18:25;;;;;;;6.77;2.77;;;;;;;24.07;24.52;100457.02;3922003;75;396298;-80
2021/03/02 16:23:49;;;;;;;3.90;3.50;;;;;;;22.99;24.88;100464.17;3921931;74;396107;-80
2021/03/02 16:29:17;;;;;;;8.17;5.10;;;;;;;20.74;27.91;100470.54;3917716;74;389813;-79
2021/03/02 16:34:38;;;;;;;11.37;6.87;;;;;;;19.04;30.59;100474.01;3916666;74;392175;-79
2021/03/02 16:40:01;;;;;;;7.23;3.70;;;;;;;17.83;32.17;100477.80;3916600;74;390823;-79
2021/03/02 16:45:23;;;;;;;9.40;3.07;;;;;;;16.88;34.51;100474.25;3917134;74;389087;-79
2021/03/02 16:50:44;;;;;;;6.37;4.40;;;;;;;15.91;36.86;100480.27;3903871;74;396110;-79
2021/03/02 16:56:08;;;;;;;2.97;2.67;;;;;;;15.31;37.23;100478.99;3896671;74;396302;-79
2021/03/02 17:01:42;;;;;;;2.77;2.57;;;;;;;14.64;41.12;100479.30;3894820;75;396081;-79
2021/03/02 17:07:00;;;;;;;3.93;2.40;;;;;;;14.07;41.84;100485.02;3894873;75;396326;-79
2021/03/02 17:12:23;;;;;;;7.27;4.53;;;;;;;13.45;42.75;100486.83;3895358;75;396354;-79
2021/03/02 17:17:44;;;;;;;8.30;3.70;;;;;;;12.98;44.39;100486.84;3895100;75;396082;-79
2021/03/02 17:23:06;;;;;;;7.00;3.73;;;;;;;12.74;45.93;100497.83;3895410;75;391866;-79
2021/03/02 17:28:27;;;;;;;9.20;3.10;;;;;;;12.20;47.30;100500.95;3894402;75;397306;-79
2021/03/02 17:33:48;;;;;;;3.87;3.40;;;;;;;11.88;48.63;100510.57;3894804;75;396324;-79
2021/03/02 17:39:10;;;;;;;7.30;2.73;;;;;;;11.60;47.37;100501.92;3895150;75;396295;-79
2021/03/02 17:44:31;;;;;;;5.30;3.20;;;;;;;11.37;48.53;100510.20;3894796;75;397112;-79
2021/03/02 17:49:52;;;;;;;2.97;2.17;;;;;;;11.16;50.07;100508.49;3878730;75;397036;-79
2021/03/02 17:55:14;;;;;;;3.20;2.20;;;;;;;10.74;53.00;100515.20;3877765;75;397052;-79
2021/03/02 18:00:35;;;;;;;5.40;2.43;;;;;;;10.36;52.63;100512.52;3887091;75;397019;-79
2021/03/02 18:05:56;;;;;;;3.63;2.27;;;;;;;10.12;53.01;100512.03;3889310;75;398254;-79
2021/03/02 18:11:18;;;;;;;8.33;2.20;;;;;;;9.94;54.13;100514.14;3889250;75;397268;-79
2021/03/02 18:16:38;;;;;;;10.10;3.40;;;;;;;9.74;56.95;100508.41;3889551;75;394963;-78
2021/03/02 18:22:00;;;;;;;2.60;2.07;;;;;;;9.39;57.46;100507.60;3887890;75;397038;-78
2021/03/02 18:27:21;;;;;;;6.03;3.43;;;;;;;9.01;59.16;100514.33;3888885;75;398011;-78
2021/03/02 18:32:43;;;;;;;4.30;3.10;;;;;;;8.95;60.20;100508.89;3889095;75;397048;-78
2021/03/02 18:38:04;;;;;;;4.43;3.27;;;;;;;8.64;61.89;100516.88;3889134;75;398021;-79
2021/03/02 18:43:31;;;;;;;3.30;2.03;;;;;;;8.21;65.42;100516.85;3889007;75;396005;-78
2021/03/02 18:48:48;;;;;;;6.70;2.50;;;;;;;7.78;66.79;100516.72;3891158;75;397031;-78
2021/03/02 18:54:10;;;;;;;6.03;2.50;;;;;;;7.60;67.86;100520.86;3894757;75;396995;-78
2021/03/02 18:59:31;;;;;;;10.50;2.27;;;;;;;7.54;66.90;100510.52;3894850;75;396995;-77
2021/03/02 19:04:52;;;;;;;3.07;2.07;;;;;;;7.52;66.74;100515.53;3893948;75;395086;-78
2021/03/02 19:10:14;;;;;;;3.17;2.90;;;;;;;7.44;66.09;100518.60;3894663;75;396999;-79
2021/03/02 19:15:35;;;;;;;3.30;2.20;;;;;;;7.28;68.45;100516.92;3894946;75;395179;-78
2021/03/02 19:20:57;;;;;;;10.77;5.63;;;;;;;7.10;71.63;100507.91;3895194;75;397003;-78
2021/03/02 19:26:18;;;;;;;5.90;2.73;;;;;;;6.97;73.33;100519.97;3895429;75;390827;-78
2021/03/02 19:31:40;;;;;;;11.93;3.10;;;;;;;6.59;75.12;100513.41;3894398;75;395089;-78
2021/03/02 19:37:01;;;;;;;1.90;1.50;;;;;;;6.25;76.94;100518.44;3895353;75;396034;-78
2021/03/02 19:42:24;;;;;;;5.00;2.43;;;;;;;6.12;77.52;100518.17;3895012;75;396699;-78
2021/03/02 19:47:45;;;;;;;5.00;2.70;;;;;;;6.00;74.93;100518.11;3895210;75;397283;-78
2021/03/02 19:53:06;;;;;;;9.43;4.60;;;;;;;5.91;76.94;100527.52;3922161;75;394951;-77
2021/03/02 19:58:29;;;;;;;4.73;2.73;;;;;;;5.80;78.20;100529.86;3922199;75;396084;-78
2021/03/02 20:03:50;;;;;;;3.17;2.87;;;;;;;5.78;75.22;100531.30;3921895;74;396385;-77
2021/03/02 20:09:13;;;;;;;7.27;3.03;;;;;;;5.71;79.98;100534.55;3922051;74;396171;-78
2021/03/02 20:14:44;;;;;;;3.80;3.40;;;;;;;5.51;81.60;100537.25;3922134;75;396100;-78
2021/03/02 20:20:00;;;;;;;6.90;2.93;;;;;;;5.30;83.49;100535.03;3915906;75;396126;-78
2021/03/02 20:25:21;;;;;;;8.43;3.80;;;;;;;5.16;82.72;100543.23;3916787;75;396302;-78
2021/03/02 20:30:42;;;;;;;3.17;2.77;;;;;;;4.96;82.58;100537.95;3916253;75;396104;-78
2021/03/02 20:36:04;;;;;;;4.87;3.10;;;;;;;4.84;83.24;100545.21;3916543;75;396326;-77
2021/03/02 20:41:25;;;;;;;5.90;4.10;;;;;;;4.92;86.17;100549.26;3916309;75;396042;-78
2021/03/02 20:46:46;;;;;;;10.40;6.20;;;;;;;4.59;88.72;100546.09;3916468;75;396090;-78
2021/03/02 20:52:08;;;;;;;4.80;2.83;;;;;;;4.47;86.87;100556.84;3902617;75;396034;-79
2021/03/02 20:57:29;;;;;;;2.70;2.40;;;;;;;4.50;89.30;100554.84;3894914;75;396067;-80
2021/03/02 21:02:50;;;;;;;3.40;2.00;;;;;;;4.19;93.28;100554.25;3894927;75;396121;-80
2021/03/02 21:08:11;;;;;;;6.03;5.43;;;;;;;4.00;93.86;100555.67;3895778;75;388832;-77
2021/03/02 21:13:32;;;;;;;2.80;2.60;;;;;;;4.00;88.26;100552.41;3895151;75;395327;-77
2021/03/02 21:18:54;;;;;;;2.30;2.13;;;;;;;4.00;87.69;100549.68;3894953;75;396136;-77
2021/03/02 21:24:15;;;;;;;6.97;2.30;;;;;;;3.94;93.14;100555.59;3894948;75;392953;-77
2021/03/02 21:29:36;;;;;;;4.90;4.50;;;;;;;3.80;96.41;100559.05;3894975;75;396338;-77
2021/03/02 21:34:57;;;;;;;3.90;2.87;;;;;;;3.67;99.69;100558.64;3893979;75;396082;-77
2021/03/02 21:40:19;;;;;;;6.57;2.20;;;;;;;3.65;98.93;100558.69;3894699;75;396408;-77
2021/03/02 21:45:40;;;;;;;5.20;3.90;;;;;;;3.39;100.00;100554.57;3894808;75;396110;-77
2021/03/02 21:51:01;;;;;;;4.63;1.33;;;;;;;3.39;100.00;100558.65;3897361;75;396354;-77
2021/03/02 21:56:22;;;;;;;15.93;4.40;;;;;;;3.13;100.00;100560.23;3902644;75;396359;-77
2021/03/02 22:01:43;;;;;;;2.00;1.80;;;;;;;3.03;100.00;100559.97;3903068;75;392905;-77
2021/03/02 22:07:10;;;;;;;3.03;2.53;;;;;;;3.04;100.00;100558.05;3902948;75;393970;-77
2021/03/02 22:12:31;;;;;;;6.03;2.10;;;;;;;2.84;100.00;100565.41;3902286;75;396298;-76
2021/03/02 22:17:52;;;;;;;4.13;3.87;;;;;;;2.89;100.00;100567.44;3902755;75;396275;-77
2021/03/02 22:23:14;;;;;;;11.87;5.27;;;;;;;2.67;100.00;100570.18;3902956;75;396084;-77
2021/03/02 22:28:35;;;;;;;3.43;3.13;;;;;;;2.56;100.00;100563.97;3902736;75;396333;-77
2021/03/02 22:33:56;;;;;;;9.50;2.70;;;;;;;2.77;100.00;100574.57;3903065;75;396070;-77
2021/03/02 22:39:18;;;;;;;8.93;1.93;;;;;;;2.53;100.00;100559.17;3903162;75;391897;-77
2021/03/02 22:44:39;;;;;;;1.60;1.50;;;;;;;2.37;100.00;100568.25;3902599;75;396160;-77
2021/03/02 22:50:00;;;;;;;2.60;1.90;;;;;;;2.25;100.00;100562.34;3900469;75;396118;-76
2021/03/02 22:55:22;;;;;;;2.23;2.03;;;;;;;2.06;100.00;100552.21;3902413;75;396073;-77
2021/03/02 23:00:43;;;;;;;5.37;3.03;;;;;;;1.98;100.00;100546.95;3877505;75;396077;-77
2021/03/02 23:06:04;;;;;;;2.90;2.70;;;;;;;1.87;100.00;100529.87;3902308;75;396351;-80
2021/03/02 23:11:25;;;;;;;4.00;3.50;;;;;;;1.85;100.00;100527.47;3877396;75;396078;-77
2021/03/02 23:16:48;;;;;;;7.70;4.00;;;;;;;1.88;100.00;100528.77;3902879;75;396332;-77
2021/03/02 23:22:10;;;;;;;2.10;1.90;;;;;;;1.89;100.00;100531.19;3877312;75;396307;-77
2021/03/02 23:27:31;;;;;;;14.77;4.07;;;;;;;1.88;100.00;100528.77;3902459;74;396121;-77
2021/03/02 23:32:52;;;;;;;3.50;3.20;;;;;;;1.93;100.00;100532.16;3877268;75;396168;-78
2021/03/02 23:38:13;;;;;;;12.53;2.83;;;;;;;1.64;100.00;100537.73;3902357;75;400453;-77
2021/03/02 23:43:35;;;;;;;3.90;3.27;;;;;;;1.53;100.00;100522.81;3877537;75;396063;-77
2021/03/02 23:48:56;;;;;;;5.53;2.60;;;;;;;1.44;100.00;100513.80;3902124;75;396328;-76
2021/03/02 23:54:17;;;;;;;3.57;2.93;;;;;;;1.54;100.00;100512.19;3877367;75;396311;-76
2021/03/02 23:59:39;;;;;;;6.00;3.70;;;;;;;1.41;100.00;100511.68;3902299;75;396388;-77
